Terminal Aerodrome Forecast
Issued by NWS

Home | Current Version | Previous Version | Text Only | Print | Product List | Glossary On
Versions: 1 2 3 4 5 6 7 8 9 10 11 12 13 14 15
000
FTUS41 KCAR 161700
TAFPQI
TAF
KPQI 161720Z 1618/1718 21008KT P6SM VCSH FEW025 OVC070
     FM170000 24006KT P6SM SCT045 BKN200
     FM170400 00000KT 3SM BR BKN200
     FM171000 25005KT P6SM BKN100=

USA.gov is the U.S. government's official web portal to all federal, state and local government web resources and services.